Time;durP1;ratioP1;P1;durP2;ratioP2;P2;SDS_P1;SDS_P2;PMS_P1;PMS_P2;Temp;Humidity;BMP_temperature;BMP_pressure;BME280_temperature;BME280_humidity;BME280_pressure;Samples;Min_cycle;Max_cycle;Signal;HPM_P1;HPM_P2
2021/09/19 00:00:08;;;;;;;2.99;2.04;;;;;;;;;;364606;147;864305;-61
2021/09/19 00:01:10;;;;;;;2.77;2.08;;;;;;;;;;364350;147;857711;-61
2021/09/19 00:02:11;;;;;;;2.70;1.94;;;;;;;;;;363256;146;858794;-61
2021/09/19 00:03:13;;;;;;;4.74;2.05;;;;;;;;;;362419;146;864807;-62
2021/09/19 00:04:15;;;;;;;2.68;1.91;;;;;;;;;;364636;147;857058;-62
2021/09/19 00:05:16;;;;;;;3.18;1.99;;;;;;;;;;362364;147;857247;-62
2021/09/19 00:06:19;;;;;;;3.65;2.19;;;;;;;;;;361639;146;857170;-61
2021/09/19 00:07:21;;;;;;;2.93;1.82;;;;;;;;;;363728;147;857298;-62
2021/09/19 00:08:22;;;;;;;4.63;2.05;;;;;;;;;;364780;147;857248;-61
2021/09/19 00:09:24;;;;;;;3.09;1.96;;;;;;;;;;363163;147;857318;-61
2021/09/19 00:10:27;;;;;;;2.61;1.76;;;;;;;;;;362360;147;858008;-61
2021/09/19 00:11:29;;;;;;;5.10;2.01;;;;;;;;;;354750;150;857264;-62
2021/09/19 00:12:31;;;;;;;3.14;1.88;;;;;;;;;;355398;149;865484;-61
2021/09/19 00:13:32;;;;;;;2.66;1.99;;;;;;;;;;354833;149;858755;-62
2021/09/19 00:14:34;;;;;;;3.43;1.89;;;;;;;;;;355538;150;857332;-61
2021/09/19 00:15:36;;;;;;;1.95;1.66;;;;;;;;;;356365;150;857203;-62
2021/09/19 00:16:38;;;;;;;3.49;1.89;;;;;;;;;;355613;150;857384;-62
2021/09/19 00:17:40;;;;;;;2.54;1.93;;;;;;;;;;354454;150;857214;-62
2021/09/19 00:18:41;;;;;;;6.30;2.00;;;;;;;;;;357535;150;857166;-62
2021/09/19 00:19:44;;;;;;;4.49;2.24;;;;;;;;;;355499;149;857240;-62
2021/09/19 00:20:46;;;;;;;2.36;1.86;;;;;;;;;;352802;149;857202;-62
2021/09/19 00:21:48;;;;;;;2.41;1.75;;;;;;;;;;356008;150;857314;-61
2021/09/19 00:22:49;;;;;;;3.13;2.31;;;;;;;;;;357294;150;857143;-61
2021/09/19 00:23:51;;;;;;;3.74;1.89;;;;;;;;;;355765;150;859030;-61
2021/09/19 00:24:52;;;;;;;6.81;1.98;;;;;;;;;;353114;149;857317;-61
2021/09/19 00:25:54;;;;;;;3.52;1.99;;;;;;;;;;353316;150;858881;-62
2021/09/19 00:26:57;;;;;;;6.14;1.86;;;;;;;;;;355875;150;857532;-62
2021/09/19 00:27:59;;;;;;;2.92;2.08;;;;;;;;;;354508;150;860210;-62
2021/09/19 00:29:01;;;;;;;4.57;1.94;;;;;;;;;;352859;150;865040;-62
2021/09/19 00:30:03;;;;;;;4.07;2.43;;;;;;;;;;356106;150;857301;-61
2021/09/19 00:31:05;;;;;;;4.10;2.07;;;;;;;;;;354924;149;857751;-62
2021/09/19 00:32:07;;;;;;;5.18;1.86;;;;;;;;;;357271;150;858027;-62
2021/09/19 00:33:08;;;;;;;4.74;1.98;;;;;;;;;;356718;150;856387;-62
2021/09/19 00:34:09;;;;;;;3.44;1.91;;;;;;;;;;356005;150;858962;-62
2021/09/19 00:35:11;;;;;;;2.89;1.80;;;;;;;;;;354348;149;858031;-62
2021/09/19 00:36:14;;;;;;;4.06;1.83;;;;;;;;;;356470;150;857250;-61
2021/09/19 00:37:15;;;;;;;3.76;1.64;;;;;;;;;;357356;150;865004;-62
2021/09/19 00:38:17;;;;;;;5.74;1.93;;;;;;;;;;354886;150;857313;-62
2021/09/19 00:39:18;;;;;;;7.16;1.92;;;;;;;;;;355939;149;857311;-61
2021/09/19 00:40:21;;;;;;;2.38;1.91;;;;;;;;;;354892;150;857279;-62
2021/09/19 00:41:22;;;;;;;2.64;1.62;;;;;;;;;;356258;150;857360;-61
2021/09/19 00:42:24;;;;;;;3.11;1.86;;;;;;;;;;357032;149;860579;-61
2021/09/19 00:43:25;;;;;;;3.24;1.84;;;;;;;;;;353218;150;857496;-61
2021/09/19 00:44:27;;;;;;;4.11;1.84;;;;;;;;;;353175;150;866006;-61
2021/09/19 00:45:29;;;;;;;3.11;1.79;;;;;;;;;;357624;150;860235;-61
2021/09/19 00:46:32;;;;;;;3.62;1.90;;;;;;;;;;357013;149;858199;-61
2021/09/19 00:47:34;;;;;;;2.52;1.84;;;;;;;;;;358482;150;860283;-62
2021/09/19 00:48:35;;;;;;;4.68;1.71;;;;;;;;;;358290;150;860955;-61
2021/09/19 00:49:37;;;;;;;2.16;1.63;;;;;;;;;;355273;149;864808;-61
2021/09/19 00:50:39;;;;;;;3.25;1.71;;;;;;;;;;355182;150;857363;-61
2021/09/19 00:51:41;;;;;;;4.38;2.35;;;;;;;;;;356159;150;857185;-61
2021/09/19 00:52:44;;;;;;;3.03;1.77;;;;;;;;;;351155;152;858301;-61
2021/09/19 00:53:45;;;;;;;2.16;1.71;;;;;;;;;;351206;150;858113;-61
2021/09/19 00:54:47;;;;;;;1.93;1.72;;;;;;;;;;342340;153;858141;-61
2021/09/19 00:55:49;;;;;;;2.22;1.53;;;;;;;;;;344789;153;858541;-61
2021/09/19 00:56:55;;;;;;;2.95;1.57;;;;;;;;;;345151;152;857996;-61
2021/09/19 00:57:57;;;;;;;2.20;1.54;;;;;;;;;;345343;155;857186;-61
2021/09/19 00:58:58;;;;;;;4.19;2.02;;;;;;;;;;347466;152;865066;-61
2021/09/19 01:00:00;;;;;;;2.69;1.61;;;;;;;;;;349539;152;860011;-61
2021/09/19 01:01:02;;;;;;;3.78;1.84;;;;;;;;;;350957;149;857521;-61
2021/09/19 01:02:04;;;;;;;2.77;1.95;;;;;;;;;;351449;150;857304;-62
2021/09/19 01:03:05;;;;;;;2.83;1.80;;;;;;;;;;351831;150;857202;-61
2021/09/19 01:04:07;;;;;;;2.96;1.90;;;;;;;;;;351537;149;856495;-61
2021/09/19 01:05:09;;;;;;;3.19;1.88;;;;;;;;;;352638;150;866721;-61
2021/09/19 01:06:12;;;;;;;5.46;1.91;;;;;;;;;;349132;152;859030;-61
2021/09/19 01:07:14;;;;;;;2.24;1.89;;;;;;;;;;350950;150;857851;-62
2021/09/19 01:08:16;;;;;;;2.59;1.56;;;;;;;;;;352720;149;857162;-62
2021/09/19 01:09:18;;;;;;;2.89;1.81;;;;;;;;;;351520;150;857369;-61
2021/09/19 01:10:21;;;;;;;3.21;1.98;;;;;;;;;;351476;151;857339;-61
2021/09/19 01:11:23;;;;;;;2.46;2.01;;;;;;;;;;350073;153;864557;-61
2021/09/19 01:12:24;;;;;;;4.37;1.96;;;;;;;;;;350982;152;857204;-62
2021/09/19 01:13:26;;;;;;;3.96;1.61;;;;;;;;;;350981;153;858686;-61
2021/09/19 01:14:28;;;;;;;2.24;1.95;;;;;;;;;;349412;151;860599;-62
2021/09/19 01:15:29;;;;;;;2.73;1.76;;;;;;;;;;349397;150;859856;-62
2021/09/19 01:16:31;;;;;;;3.07;1.87;;;;;;;;;;349117;153;860014;-62
2021/09/19 01:17:33;;;;;;;1.96;1.61;;;;;;;;;;349375;153;858661;-62
2021/09/19 01:18:35;;;;;;;5.05;1.91;;;;;;;;;;348928;153;865416;-62
2021/09/19 01:19:36;;;;;;;3.31;1.81;;;;;;;;;;351038;151;857211;-62
2021/09/19 01:20:40;;;;;;;2.92;1.83;;;;;;;;;;346964;153;864695;-62
2021/09/19 01:21:42;;;;;;;2.37;1.67;;;;;;;;;;349092;152;857195;-62
2021/09/19 01:22:44;;;;;;;4.99;2.21;;;;;;;;;;349616;152;866721;-62
2021/09/19 01:23:59;;;;;;;3.50;1.85;;;;;;;;;;350399;153;857545;-62
2021/09/19 01:25:01;;;;;;;3.19;2.17;;;;;;;;;;349690;151;857776;-62
2021/09/19 01:26:04;;;;;;;2.35;1.77;;;;;;;;;;349888;152;858056;-62
2021/09/19 01:27:06;;;;;;;2.97;2.14;;;;;;;;;;353445;150;857285;-61
2021/09/19 01:28:07;;;;;;;4.34;1.91;;;;;;;;;;352021;153;856658;-62
2021/09/19 01:29:12;;;;;;;3.51;2.30;;;;;;;;;;350375;151;857394;-62
2021/09/19 01:30:14;;;;;;;7.43;2.43;;;;;;;;;;351703;150;857222;-62
2021/09/19 01:31:16;;;;;;;4.58;2.48;;;;;;;;;;348271;153;859451;-62
2021/09/19 01:32:21;;;;;;;4.73;2.73;;;;;;;;;;350833;152;859288;-62
2021/09/19 01:33:22;;;;;;;4.72;2.72;;;;;;;;;;348131;152;866514;-62
2021/09/19 01:34:24;;;;;;;5.20;2.70;;;;;;;;;;349815;151;857791;-62
2021/09/19 01:35:25;;;;;;;2.94;2.49;;;;;;;;;;351064;153;859087;-62
2021/09/19 01:36:29;;;;;;;4.17;2.60;;;;;;;;;;349666;151;857710;-62
2021/09/19 01:37:31;;;;;;;2.87;2.49;;;;;;;;;;349226;152;858955;-62
2021/09/19 01:38:33;;;;;;;5.64;3.11;;;;;;;;;;350645;150;857206;-62
2021/09/19 01:39:34;;;;;;;3.06;2.09;;;;;;;;;;351447;150;859101;-61
2021/09/19 01:40:36;;;;;;;3.55;2.41;;;;;;;;;;349362;152;858912;-62
2021/09/19 01:41:38;;;;;;;4.59;2.71;;;;;;;;;;351057;153;858040;-62
2021/09/19 01:42:39;;;;;;;3.61;2.69;;;;;;;;;;352101;153;861399;-62
2021/09/19 01:43:41;;;;;;;5.44;2.64;;;;;;;;;;350414;150;859433;-62
2021/09/19 01:44:42;;;;;;;4.11;2.23;;;;;;;;;;351318;152;866045;-62
2021/09/19 01:45:44;;;;;;;6.11;2.46;;;;;;;;;;350964;153;857379;-61
2021/09/19 01:46:46;;;;;;;2.95;2.36;;;;;;;;;;347796;152;864895;-61
2021/09/19 01:47:47;;;;;;;2.56;2.31;;;;;;;;;;349989;151;864597;-61
2021/09/19 01:48:49;;;;;;;3.27;2.56;;;;;;;;;;352201;150;857328;-62
2021/09/19 01:49:51;;;;;;;5.00;2.54;;;;;;;;;;346378;151;859538;-62
2021/09/19 01:50:53;;;;;;;3.15;2.36;;;;;;;;;;351488;150;859566;-62
2021/09/19 01:51:55;;;;;;;4.45;2.48;;;;;;;;;;351689;149;864647;-61
2021/09/19 01:52:56;;;;;;;3.58;2.65;;;;;;;;;;348391;149;858155;-61
2021/09/19 01:53:58;;;;;;;4.01;2.58;;;;;;;;;;351173;150;860543;-62
2021/09/19 01:55:00;;;;;;;3.14;2.35;;;;;;;;;;352777;150;865615;-62
2021/09/19 01:56:01;;;;;;;3.27;2.27;;;;;;;;;;352637;150;857858;-62
2021/09/19 01:57:03;;;;;;;3.52;2.36;;;;;;;;;;352513;151;857399;-62
2021/09/19 01:58:05;;;;;;;4.32;2.73;;;;;;;;;;352244;150;865295;-62
2021/09/19 01:59:07;;;;;;;3.01;2.27;;;;;;;;;;353082;150;858079;-62
2021/09/19 02:00:10;;;;;;;4.01;2.65;;;;;;;;;;353229;150;858488;-62
2021/09/19 02:01:11;;;;;;;3.69;2.75;;;;;;;;;;351990;151;858718;-61
2021/09/19 02:02:13;;;;;;;5.26;2.34;;;;;;;;;;352103;150;859105;-61
2021/09/19 02:03:17;;;;;;;7.75;2.72;;;;;;;;;;352490;150;864787;-61
2021/09/19 02:04:18;;;;;;;4.14;2.34;;;;;;;;;;354303;151;857604;-62
2021/09/19 02:05:20;;;;;;;2.65;2.44;;;;;;;;;;351863;151;865029;-62
2021/09/19 02:06:22;;;;;;;6.83;3.09;;;;;;;;;;353343;151;864472;-61
2021/09/19 02:07:23;;;;;;;7.26;2.41;;;;;;;;;;350290;152;859398;-62
2021/09/19 02:08:25;;;;;;;4.44;2.54;;;;;;;;;;351361;152;857290;-61
2021/09/19 02:09:26;;;;;;;3.78;2.62;;;;;;;;;;352232;151;859401;-62
2021/09/19 02:10:29;;;;;;;4.55;2.46;;;;;;;;;;346583;154;859113;-61
2021/09/19 02:11:30;;;;;;;3.95;2.40;;;;;;;;;;352963;151;857312;-62
2021/09/19 02:12:33;;;;;;;3.61;2.66;;;;;;;;;;353296;150;857247;-61
2021/09/19 02:13:35;;;;;;;6.00;2.58;;;;;;;;;;353208;150;857350;-62
2021/09/19 02:14:36;;;;;;;3.39;2.24;;;;;;;;;;353539;151;864683;-62
2021/09/19 02:15:38;;;;;;;3.46;2.79;;;;;;;;;;352415;151;864757;-62
2021/09/19 02:16:40;;;;;;;3.27;2.36;;;;;;;;;;350870;150;860474;-62
2021/09/19 02:17:42;;;;;;;4.75;2.49;;;;;;;;;;352752;151;859657;-62
2021/09/19 02:18:43;;;;;;;4.17;2.67;;;;;;;;;;352995;151;857560;-62
2021/09/19 02:19:45;;;;;;;2.56;2.36;;;;;;;;;;352736;150;864865;-62
2021/09/19 02:20:47;;;;;;;4.34;2.63;;;;;;;;;;353662;150;857130;-62
2021/09/19 02:21:48;;;;;;;4.86;2.56;;;;;;;;;;351715;151;857448;-62
2021/09/19 02:22:50;;;;;;;5.79;2.69;;;;;;;;;;352947;151;857313;-61
2021/09/19 02:23:51;;;;;;;4.44;2.91;;;;;;;;;;354738;150;857652;-62
2021/09/19 02:24:53;;;;;;;3.29;2.40;;;;;;;;;;352378;151;857203;-62
2021/09/19 02:25:55;;;;;;;4.32;2.79;;;;;;;;;;351684;151;858901;-62
2021/09/19 02:26:56;;;;;;;4.64;2.53;;;;;;;;;;352667;151;858740;-61
2021/09/19 02:27:58;;;;;;;4.16;2.36;;;;;;;;;;352952;150;865749;-62
2021/09/19 02:28:59;;;;;;;3.44;2.41;;;;;;;;;;352098;151;857456;-61
2021/09/19 02:30:03;;;;;;;3.03;2.51;;;;;;;;;;351987;151;859872;-64
2021/09/19 02:31:05;;;;;;;5.39;2.49;;;;;;;;;;350804;150;856451;-64
2021/09/19 02:32:06;;;;;;;3.63;2.63;;;;;;;;;;353056;151;857968;-61
2021/09/19 02:33:08;;;;;;;6.31;2.74;;;;;;;;;;350048;151;864939;-61
2021/09/19 02:34:10;;;;;;;5.79;2.79;;;;;;;;;;354165;150;857359;-61
2021/09/19 02:35:14;;;;;;;2.70;2.36;;;;;;;;;;352622;150;857384;-62
2021/09/19 02:36:16;;;;;;;3.96;2.43;;;;;;;;;;352710;152;858823;-61
2021/09/19 02:37:17;;;;;;;4.85;2.44;;;;;;;;;;352051;150;865459;-60
2021/09/19 02:38:19;;;;;;;4.91;2.74;;;;;;;;;;351862;150;864763;-61
2021/09/19 02:39:20;;;;;;;5.76;2.66;;;;;;;;;;350436;150;857772;-62
2021/09/19 02:40:23;;;;;;;4.17;2.39;;;;;;;;;;352265;151;857260;-61
2021/09/19 02:41:25;;;;;;;5.80;2.74;;;;;;;;;;352560;150;857213;-61
2021/09/19 02:42:27;;;;;;;5.61;2.76;;;;;;;;;;351721;150;856283;-62
2021/09/19 02:43:28;;;;;;;5.31;2.80;;;;;;;;;;351459;151;856306;-62
2021/09/19 02:44:30;;;;;;;6.15;2.77;;;;;;;;;;352456;151;856183;-62
2021/09/19 02:45:31;;;;;;;4.26;2.69;;;;;;;;;;350951;151;856271;-62
2021/09/19 02:46:35;;;;;;;5.07;2.67;;;;;;;;;;352250;150;856032;-62
2021/09/19 02:49:27;;;;;;;3.53;2.21;;;;;;;13.88;70.50;98957.61;370664;142;881942;-61
2021/09/19 02:50:30;;;;;;;4.02;2.08;;;;;;;13.78;70.72;98958.83;364421;147;857283;-60
2021/09/19 02:51:33;;;;;;;4.09;1.75;;;;;;;13.77;70.63;98962.34;363651;147;859739;-62
2021/09/19 02:52:35;;;;;;;3.65;1.77;;;;;;;13.77;70.63;98962.34;363211;146;859334;-62
2021/09/19 02:53:37;;;;;;;4.59;1.62;;;;;;;13.82;70.52;98956.98;362129;146;865380;-61
2021/09/19 02:54:38;;;;;;;6.35;1.64;;;;;;;13.90;70.48;98959.31;361353;147;858983;-62
2021/09/19 02:55:40;;;;;;;1.86;1.46;;;;;;;13.96;70.09;98956.48;361403;147;865079;-61
2021/09/19 02:56:44;;;;;;;4.26;1.82;;;;;;;14.01;69.72;98957.15;361094;145;866591;-62
2021/09/19 02:57:45;;;;;;;2.63;1.72;;;;;;;14.07;69.52;98953.45;365493;146;857749;-62
2021/09/19 02:58:47;;;;;;;3.52;1.41;;;;;;;14.16;69.43;98956.55;362388;147;866745;-62
2021/09/19 02:59:49;;;;;;;2.85;1.91;;;;;;;14.24;68.87;98958.02;364049;147;864791;-61
2021/09/19 03:00:52;;;;;;;3.62;1.87;;;;;;;14.31;69.04;98951.66;363245;146;864515;-61
2021/09/19 03:01:54;;;;;;;4.75;1.79;;;;;;;14.31;69.04;98951.66;362629;147;857313;-61
2021/09/19 03:02:55;;;;;;;3.34;1.76;;;;;;;14.46;68.27;98965.84;363079;145;857278;-61
2021/09/19 03:03:57;;;;;;;3.34;1.75;;;;;;;14.49;68.20;98957.91;361938;146;864587;-61
2021/09/19 03:04:59;;;;;;;3.59;1.68;;;;;;;14.53;68.12;98967.29;362467;147;859208;-61
2021/09/19 03:06:01;;;;;;;3.91;2.23;;;;;;;14.53;67.62;98959.48;363807;147;866000;-62
2021/09/19 03:07:02;;;;;;;2.94;2.04;;;;;;;14.55;67.67;98964.61;365386;145;865814;-61
2021/09/19 03:08:04;;;;;;;4.51;1.79;;;;;;;14.57;67.69;98963.66;358572;150;864587;-60
2021/09/19 03:09:06;;;;;;;2.29;1.85;;;;;;;14.56;67.46;98963.70;358285;150;859041;-60
2021/09/19 03:10:10;;;;;;;4.77;2.62;;;;;;;14.55;67.56;98968.08;362106;147;857227;-61
2021/09/19 03:11:11;;;;;;;3.65;2.03;;;;;;;14.56;67.60;98959.35;358425;148;865572;-61
2021/09/19 03:12:13;;;;;;;2.71;1.82;;;;;;;14.53;67.39;98969.03;358301;147;857920;-61
2021/09/19 03:13:15;;;;;;;6.13;1.93;;;;;;;14.48;67.30;98966.63;359735;148;867249;-61
2021/09/19 03:14:17;;;;;;;4.04;1.76;;;;;;;14.42;67.40;98962.50;359228;147;866212;-61
2021/09/19 03:15:18;;;;;;;2.79;1.72;;;;;;;;;;357974;147;864830;-61
2021/09/19 03:16:21;;;;;;;4.82;2.23;;;;;;;;;;358345;148;866747;-59
2021/09/19 03:17:22;;;;;;;3.51;2.11;;;;;;;;;;357717;149;857310;-60
2021/09/19 03:18:24;;;;;;;2.89;2.20;;;;;;;;;;358896;147;857227;-60
2021/09/19 03:19:26;;;;;;;5.16;2.01;;;;;;;;;;358904;148;857249;-60
2021/09/19 03:20:29;;;;;;;4.34;2.16;;;;;;;;;;360232;147;857252;-62
2021/09/19 03:21:30;;;;;;;4.23;1.99;;;;;;;;;;358660;148;857879;-60
2021/09/19 03:22:33;;;;;;;2.87;2.19;;;;;;;;;;357958;149;864712;-60
2021/09/19 03:23:34;;;;;;;3.57;2.18;;;;;;;;;;358806;147;859746;-60
2021/09/19 03:24:36;;;;;;;5.65;2.15;;;;;;;;;;355476;148;865582;-60
2021/09/19 03:25:38;;;;;;;3.51;2.00;;;;;;;;;;358005;147;857566;-61
2021/09/19 03:26:39;;;;;;;4.31;2.11;;;;;;;;;;359014;149;864620;-60
2021/09/19 03:27:41;;;;;;;8.56;2.21;;;;;;;;;;355075;149;857239;-60
2021/09/19 03:28:43;;;;;;;7.11;1.95;;;;;;;;;;358145;147;857300;-60
2021/09/19 03:29:44;;;;;;;7.26;2.11;;;;;;;;;;358767;149;865267;-60
2021/09/19 03:30:46;;;;;;;3.13;1.95;;;;;;;;;;355224;147;858886;-59
2021/09/19 03:31:48;;;;;;;9.31;2.19;;;;;;;;;;357244;147;858877;-62
2021/09/19 03:32:49;;;;;;;5.91;2.18;;;;;;;;;;358893;147;857736;-62
2021/09/19 03:33:51;;;;;;;8.04;2.44;;;;;;;;;;358595;147;858683;-60
2021/09/19 03:34:53;;;;;;;3.47;1.93;;;;;;;;;;356563;150;859288;-61
2021/09/19 03:35:54;;;;;;;2.38;2.10;;;;;;;;;;361404;147;857763;-60
2021/09/19 03:36:57;;;;;;;6.94;2.71;;;;;;;;;;358608;149;857288;-61
2021/09/19 03:37:58;;;;;;;2.31;1.84;;;;;;;;;;356533;148;859744;-62
2021/09/19 03:39:00;;;;;;;4.69;2.60;;;;;;;;;;358100;149;857769;-62
2021/09/19 03:40:02;;;;;;;2.81;2.03;;;;;;;;;;358299;147;857413;-61
2021/09/19 03:41:04;;;;;;;4.28;2.43;;;;;;;;;;358504;147;857404;-61
2021/09/19 03:42:05;;;;;;;3.13;2.01;;;;;;;;;;357889;148;857342;-60
2021/09/19 03:43:07;;;;;;;3.88;2.36;;;;;;;;;;359859;147;856390;-60
2021/09/19 03:44:10;;;;;;;7.42;2.14;;;;;;;;;;358828;148;863953;-60
2021/09/19 03:45:12;;;;;;;2.56;1.83;;;;;;;;;;356225;149;864002;-61
2021/09/19 03:46:15;;;;;;;3.26;1.79;;;;;;;;;;356438;148;857295;-62
2021/09/19 03:47:17;;;;;;;4.92;2.36;;;;;;;;;;358458;146;858836;-62
2021/09/19 03:48:18;;;;;;;8.05;2.33;;;;;;;;;;358842;149;866101;-61
2021/09/19 03:49:20;;;;;;;2.72;1.96;;;;;;;;;;358885;148;859124;-61
2021/09/19 03:50:22;;;;;;;3.39;1.87;;;;;;;;;;357658;148;864935;-63
2021/09/19 03:51:24;;;;;;;3.85;2.00;;;;;;;;;;358585;147;857239;-63
2021/09/19 03:52:26;;;;;;;7.00;1.97;;;;;;;;;;357826;147;864814;-64
2021/09/19 03:53:27;;;;;;;5.54;1.90;;;;;;;;;;356840;147;857869;-64
2021/09/19 03:54:29;;;;;;;3.44;2.21;;;;;;;;;;358989;147;857284;-64
2021/09/19 03:55:30;;;;;;;2.71;2.14;;;;;;;;;;359306;147;859896;-63
2021/09/19 03:56:32;;;;;;;2.33;1.87;;;;;;;;;;360563;147;859487;-65
2021/09/19 03:57:34;;;;;;;4.02;1.91;;;;;;;;;;359283;147;858575;-64
2021/09/19 03:58:36;;;;;;;4.86;2.09;;;;;;;;;;352807;150;857252;-65
2021/09/19 03:59:37;;;;;;;4.28;1.95;;;;;;;;;;361885;147;857095;-64
2021/09/19 04:00:39;;;;;;;2.34;1.87;;;;;;;;;;361635;147;857704;-64
2021/09/19 04:01:40;;;;;;;2.81;1.90;;;;;;;;;;357758;147;864578;-65
2021/09/19 04:02:42;;;;;;;5.66;2.10;;;;;;;;;;359250;147;864550;-62
2021/09/19 04:03:44;;;;;;;3.24;1.94;;;;;;;;;;351058;150;857257;-61
2021/09/19 04:04:45;;;;;;;4.21;1.99;;;;;;;;;;357191;147;866402;-66
2021/09/19 04:05:47;;;;;;;5.05;1.87;;;;;;;;;;359142;147;856844;-64
2021/09/19 04:06:49;;;;;;;4.67;2.16;;;;;;;;;;362008;147;857160;-65
2021/09/19 04:07:51;;;;;;;3.51;2.51;;;;;;;;;;353538;148;857751;-62
2021/09/19 04:08:52;;;;;;;4.83;1.87;;;;;;;;;;358457;147;864879;-62
2021/09/19 04:09:54;;;;;;;6.29;2.48;;;;;;;;;;358342;147;858754;-63
2021/09/19 04:10:56;;;;;;;5.25;2.06;;;;;;;;;;357248;147;860016;-64
2021/09/19 04:11:58;;;;;;;6.34;1.88;;;;;;;;;;355156;148;858936;-63
2021/09/19 04:12:59;;;;;;;6.33;2.12;;;;;;;;;;358666;147;864866;-65
2021/09/19 04:14:01;;;;;;;6.99;2.02;;;;;;;;;;356696;148;858938;-66
2021/09/19 04:15:03;;;;;;;3.15;2.03;;;;;;;;;;359184;147;859053;-64
2021/09/19 04:16:05;;;;;;;4.66;2.37;;;;;;;;;;358293;148;858510;-60
2021/09/19 04:17:06;;;;;;;3.44;1.86;;;;;;;;;;358412;147;857258;-66
2021/09/19 04:18:08;;;;;;;2.87;2.05;;;;;;;;;;357150;147;864911;-62
2021/09/19 04:19:09;;;;;;;2.52;1.89;;;;;;;;;;357997;148;856433;-61
2021/09/19 04:20:12;;;;;;;2.99;1.81;;;;;;;;;;357499;148;863912;-60
2021/09/19 04:21:13;;;;;;;5.74;2.18;;;;;;;;;;360276;147;857300;-59
2021/09/19 04:22:15;;;;;;;4.46;2.18;;;;;;;;;;357443;149;865228;-62
2021/09/19 04:23:17;;;;;;;2.97;1.86;;;;;;;;;;358446;147;864750;-59
2021/09/19 04:24:18;;;;;;;5.30;1.99;;;;;;;;;;357287;149;858940;-59
2021/09/19 04:25:20;;;;;;;2.48;1.84;;;;;;;;;;359890;147;864849;-59
2021/09/19 04:26:22;;;;;;;6.39;2.17;;;;;;;;;;357078;148;857365;-59
2021/09/19 04:27:24;;;;;;;2.36;1.86;;;;;;;;;;358344;149;865170;-61
2021/09/19 04:28:26;;;;;;;3.51;1.94;;;;;;;;;;359967;147;857089;-62
2021/09/19 04:29:27;;;;;;;2.25;1.79;;;;;;;;;;354669;150;857191;-58
2021/09/19 04:30:29;;;;;;;5.56;1.83;;;;;;;;;;356853;147;857139;-58
2021/09/19 04:31:31;;;;;;;5.21;2.10;;;;;;;;;;358703;149;857279;-58
2021/09/19 04:32:33;;;;;;;4.22;2.16;;;;;;;;;;357550;148;866519;-56
2021/09/19 04:33:34;;;;;;;2.09;1.90;;;;;;;;;;363492;147;859088;-59
2021/09/19 04:34:36;;;;;;;4.74;2.21;;;;;;;;;;359649;147;858057;-59
2021/09/19 04:35:38;;;;;;;2.87;1.99;;;;;;;;;;359324;147;859666;-59
2021/09/19 04:36:40;;;;;;;3.91;1.81;;;;;;;;;;354980;148;857126;-59
2021/09/19 04:37:41;;;;;;;4.54;1.90;;;;;;;;;;360171;147;858722;-58
2021/09/19 04:38:43;;;;;;;3.40;2.41;;;;;;;;;;356917;148;857307;-58
2021/09/19 04:39:45;;;;;;;3.04;2.11;;;;;;;;;;359315;147;859194;-57
2021/09/19 04:40:47;;;;;;;5.74;2.41;;;;;;;;;;357521;148;857257;-58
2021/09/19 04:41:49;;;;;;;3.91;2.21;;;;;;;;;;359062;147;866023;-58
2021/09/19 04:42:50;;;;;;;3.49;2.36;;;;;;;;;;359172;149;857376;-57
2021/09/19 04:43:52;;;;;;;3.96;2.00;;;;;;;;;;356388;149;859109;-58
2021/09/19 04:44:54;;;;;;;3.67;1.97;;;;;;;;;;356009;148;858850;-58
2021/09/19 04:45:55;;;;;;;4.56;2.38;;;;;;;;;;357821;147;857663;-58
2021/09/19 04:46:57;;;;;;;6.09;2.50;;;;;;;;;;358699;147;857097;-58
2021/09/19 04:47:58;;;;;;;6.53;2.80;;;;;;;;;;355820;147;864797;-58
2021/09/19 04:49:00;;;;;;;3.81;2.73;;;;;;;;;;358608;147;857329;-57
2021/09/19 04:50:02;;;;;;;4.91;3.01;;;;;;;;;;358749;147;857624;-58
2021/09/19 04:51:03;;;;;;;5.96;3.34;;;;;;;;;;359550;147;859453;-59
2021/09/19 04:52:06;;;;;;;6.23;3.16;;;;;;;;;;361229;148;864857;-59
2021/09/19 04:53:07;;;;;;;7.04;3.53;;;;;;;;;;358917;147;857153;-59
2021/09/19 04:54:09;;;;;;;5.82;3.52;;;;;;;;;;360613;148;857393;-58
2021/09/19 04:55:11;;;;;;;5.46;4.01;;;;;;;;;;359720;147;857306;-58
2021/09/19 04:56:14;;;;;;;7.15;3.92;;;;;;;;;;360282;147;857241;-57
2021/09/19 04:57:16;;;;;;;9.16;3.86;;;;;;;;;;358779;148;857770;-58
2021/09/19 04:58:17;;;;;;;6.81;3.94;;;;;;;;;;359784;147;857165;-58
2021/09/19 04:59:19;;;;;;;8.94;4.09;;;;;;;;;;358389;148;860931;-58
2021/09/19 05:00:21;;;;;;;8.83;4.05;;;;;;;;;;359490;147;859830;-58
2021/09/19 05:01:22;;;;;;;7.09;4.73;;;;;;;;;;362267;147;858796;-58
2021/09/19 05:02:24;;;;;;;7.19;3.64;;;;;;;;;;358668;148;860215;-59
2021/09/19 05:03:26;;;;;;;10.84;4.64;;;;;;;;;;358684;147;862540;-58
2021/09/19 05:04:27;;;;;;;6.74;4.09;;;;;;;;;;358307;147;857043;-58
2021/09/19 05:05:29;;;;;;;10.41;4.34;;;;;;;;;;359760;147;866485;-59
2021/09/19 05:06:32;;;;;;;5.97;3.81;;;;;;;;;;359368;148;859637;-58
2021/09/19 05:07:33;;;;;;;8.93;2.99;;;;;;;;;;358125;148;859124;-60
2021/09/19 05:08:35;;;;;;;6.52;3.24;;;;;;;;;;360441;147;866472;-59
2021/09/19 05:09:36;;;;;;;5.26;3.38;;;;;;;;;;357918;149;859038;-58
2021/09/19 05:10:38;;;;;;;4.85;3.23;;;;;;;;;;360251;147;858974;-59
2021/09/19 05:11:40;;;;;;;4.45;3.05;;;;;;;;;;358857;149;858132;-59
2021/09/19 05:12:41;;;;;;;4.29;3.04;;;;;;;;;;358443;147;858120;-58
2021/09/19 05:13:43;;;;;;;5.48;3.41;;;;;;;;;;358382;147;857374;-58
2021/09/19 05:14:45;;;;;;;4.48;3.28;;;;;;;;;;358443;148;858776;-58
2021/09/19 05:15:46;;;;;;;6.61;3.04;;;;;;;;;;361405;147;858997;-58
2021/09/19 05:16:48;;;;;;;4.93;3.19;;;;;;;;;;366514;147;865396;-57
2021/09/19 05:17:49;;;;;;;4.01;3.12;;;;;;;;;;358930;147;866015;-58
2021/09/19 05:18:51;;;;;;;3.32;3.02;;;;;;;;;;357997;150;857826;-58
2021/09/19 05:19:53;;;;;;;4.47;2.96;;;;;;;;;;358500;148;857269;-58
2021/09/19 05:20:54;;;;;;;4.76;3.41;;;;;;;;;;357341;148;857322;-58
2021/09/19 05:21:56;;;;;;;8.20;3.13;;;;;;;;;;357996;149;857205;-58
2021/09/19 05:22:58;;;;;;;4.20;3.11;;;;;;;;;;357766;147;859582;-57
2021/09/19 05:23:59;;;;;;;4.47;2.96;;;;;;;;;;358482;150;860131;-58
2021/09/19 05:25:01;;;;;;;4.71;3.03;;;;;;;;;;359736;147;857381;-58
2021/09/19 05:26:03;;;;;;;4.99;3.24;;;;;;;;;;352251;150;858008;-57
2021/09/19 05:27:04;;;;;;;5.23;3.07;;;;;;;;;;356654;147;864852;-58
2021/09/19 05:28:06;;;;;;;3.40;3.04;;;;;;;;;;357548;147;857369;-59
2021/09/19 05:29:07;;;;;;;5.07;3.03;;;;;;;;;;358492;147;857274;-58
2021/09/19 05:30:11;;;;;;;5.35;3.27;;;;;;;;;;357001;147;856413;-58
2021/09/19 05:31:15;;;;;;;4.35;2.77;;;;;;;;;;359218;147;865755;-58
2021/09/19 05:32:17;;;;;;;3.58;2.72;;;;;;;;;;359183;147;858527;-58
2021/09/19 05:33:19;;;;;;;5.31;2.89;;;;;;;;;;357842;147;857762;-59
2021/09/19 05:34:20;;;;;;;3.77;2.99;;;;;;;;;;358351;147;865343;-59
2021/09/19 05:35:22;;;;;;;3.14;2.74;;;;;;;;;;357380;148;858921;-58
2021/09/19 05:36:24;;;;;;;4.44;2.95;;;;;;;;;;358417;148;857199;-59
2021/09/19 05:37:25;;;;;;;6.06;2.74;;;;;;;;;;358123;147;857084;-59
2021/09/19 05:38:27;;;;;;;5.63;2.66;;;;;;;;;;358997;149;865329;-58
2021/09/19 05:39:28;;;;;;;4.37;2.64;;;;;;;;;;359366;148;857313;-58
2021/09/19 05:40:31;;;;;;;4.23;2.89;;;;;;;;;;358854;147;858664;-58
2021/09/19 05:41:33;;;;;;;3.62;2.72;;;;;;;;;;357645;148;858188;-59
2021/09/19 05:42:34;;;;;;;3.59;2.75;;;;;;;;;;360807;148;866738;-59
2021/09/19 05:43:36;;;;;;;2.95;2.44;;;;;;;;;;357619;147;857959;-59
2021/09/19 05:44:37;;;;;;;3.38;2.31;;;;;;;;;;359667;147;857619;-59
2021/09/19 05:45:39;;;;;;;5.21;2.64;;;;;;;;;;358559;147;857128;-59
2021/09/19 05:46:41;;;;;;;3.99;2.25;;;;;;;;;;358414;147;863827;-58
2021/09/19 05:47:43;;;;;;;3.38;2.04;;;;;;;;;;357529;147;864771;-57
2021/09/19 05:48:45;;;;;;;4.87;2.29;;;;;;;;;;359080;147;865830;-57
2021/09/19 05:49:46;;;;;;;3.39;2.61;;;;;;;;;;349578;150;866434;-59
2021/09/19 05:50:48;;;;;;;4.33;2.10;;;;;;;;;;358249;147;858809;-59
2021/09/19 05:51:50;;;;;;;4.91;2.09;;;;;;;;;;357619;147;856132;-60
2021/09/19 05:52:51;;;;;;;4.00;1.80;;;;;;;;;;358429;147;857184;-61
2021/09/19 05:53:53;;;;;;;7.06;2.59;;;;;;;;;;358173;147;864775;-60
2021/09/19 05:54:54;;;;;;;3.91;1.86;;;;;;;;;;357800;147;857197;-59
2021/09/19 05:55:56;;;;;;;3.44;2.01;;;;;;;;;;357747;147;858295;-59
2021/09/19 05:56:58;;;;;;;2.67;1.94;;;;;;;;;;358217;147;857468;-61
2021/09/19 05:57:59;;;;;;;4.86;2.02;;;;;;;;;;358838;147;864499;-61
2021/09/19 05:59:01;;;;;;;6.36;2.56;;;;;;;;;;358097;147;857004;-60
2021/09/19 06:00:04;;;;;;;5.76;2.78;;;;;;;;;;358047;147;857233;-59